Time;durP1;ratioP1;P1;durP2;ratioP2;P2;SDS_P1;SDS_P2;PMS_P1;PMS_P2;Temp;Humidity;BMP_temperature;BMP_pressure;BME280_temperature;BME280_humidity;BME280_pressure;Samples;Min_cycle;Max_cycle;Signal;HPM_P1;HPM_P2
2022/05/09 05:17:47;;;;;;;;;16.50;13.25;;;;;15.90;41.03;101894.41;6061546;22;46651;-48
2022/05/09 05:20:15;;;;;;;;;14.25;12.50;;;;;15.98;41.18;101905.75;5000449;28;45982;-50
2022/05/09 05:22:42;;;;;;;;;14.75;13.00;;;;;15.99;41.22;101917.22;5002492;28;45346;-49
2022/05/09 05:25:09;;;;;;;;;10.75;10.00;;;;;15.98;41.22;101912.81;5015282;28;45334;-54
2022/05/09 05:27:35;;;;;;;;;17.25;14.75;;;;;15.99;41.53;101920.75;5002481;28;45258;-50
2022/05/09 05:30:00;;;;;;;;;13.75;13.75;;;;;15.99;41.59;101927.84;5004601;28;45426;-45
2022/05/09 05:32:28;;;;;;;;;17.25;12.25;;;;;15.98;41.67;101926.09;5002378;28;45905;-45
2022/05/09 05:34:54;;;;;;;;;15.00;13.25;;;;;15.98;41.31;101926.09;5002050;28;45247;-47
2022/05/09 05:37:20;;;;;;;;;15.25;12.75;;;;;15.97;41.45;101919.03;5002328;28;45400;-46
2022/05/09 05:39:47;;;;;;;;;13.25;13.00;;;;;15.98;41.76;101916.34;5000387;28;45448;-46
2022/05/09 05:42:18;;;;;;;;;14.75;13.50;;;;;15.96;41.65;101926.13;5001945;28;46174;-47
2022/05/09 05:44:47;;;;;;;;;15.75;13.75;;;;;15.99;41.60;101927.84;5001699;28;45236;-45
2022/05/09 05:47:15;;;;;;;;;13.00;10.50;;;;;15.98;41.46;101924.28;5002096;28;45321;-44
2022/05/09 05:49:41;;;;;;;;;12.00;12.00;;;;;16.00;41.68;101932.22;5001775;28;45465;-44
2022/05/09 05:52:08;;;;;;;;;14.25;14.25;;;;;16.01;41.41;101940.16;5001753;28;46092;-44
2022/05/09 05:54:39;;;;;;;;;13.25;11.25;;;;;16.00;41.49;101937.50;5001713;28;45232;-44
2022/05/09 05:57:06;;;;;;;;;19.25;14.75;;;;;16.00;41.63;101932.22;5002068;28;45518;-45
2022/05/09 05:59:32;;;;;;;;;16.50;13.25;;;;;16.01;41.29;101926.00;4988586;28;45193;-47
2022/05/09 06:01:57;;;;;;;;;13.00;12.75;;;;;16.05;41.40;101928.59;5001537;28;45257;-47
2022/05/09 06:04:23;;;;;;;;;18.25;13.00;;;;;16.06;41.89;101934.75;5002010;28;45206;-50
2022/05/09 06:06:48;;;;;;;;;15.75;15.50;;;;;16.10;41.41;101936.47;5001937;28;45218;-46
2022/05/09 06:09:14;;;;;;;;;19.00;14.50;;;;;16.12;41.66;101932.00;4991145;28;45569;-46
2022/05/09 06:11:41;;;;;;;;;14.50;12.75;;;;;16.14;41.67;101940.81;5008388;28;47339;-47
2022/05/09 06:14:07;;;;;;;;;17.75;16.00;;;;;16.16;41.87;101946.97;5000644;28;45479;-53
2022/05/09 06:16:34;;;;;;;;;15.75;13.00;;;;;16.19;41.94;101943.38;5001694;28;45342;-47
2022/05/09 06:19:00;;;;;;;;;13.50;13.50;;;;;16.21;41.59;101930.94;5001187;28;45251;-48
2022/05/09 06:21:26;;;;;;;;;15.00;14.00;;;;;16.24;41.95;101939.72;5001317;28;46831;-50
2022/05/09 06:23:52;;;;;;;;;14.25;13.75;;;;;16.19;42.02;101930.97;5001127;28;45263;-45
2022/05/09 06:26:17;;;;;;;;;22.00;17.25;;;;;16.29;41.70;101946.72;5000922;28;45216;-46
2022/05/09 06:28:42;;;;;;;;;13.75;11.25;;;;;16.31;41.49;101942.25;4993941;28;45312;-45
2022/05/09 06:31:08;;;;;;;;;11.25;10.25;;;;;16.33;41.64;101943.97;4998872;28;46996;-48
2022/05/09 06:33:34;;;;;;;;;13.25;11.50;;;;;16.35;41.87;101942.19;4978998;28;45360;-46
2022/05/09 06:36:03;;;;;;;;;13.00;11.25;;;;;16.37;41.99;101937.69;4997291;28;45354;-48
2022/05/09 06:38:29;;;;;;;;;12.25;11.75;;;;;16.41;42.25;101939.41;4980901;28;45573;-48
2022/05/09 06:40:54;;;;;;;;;15.25;12.75;;;;;16.45;42.18;101949.94;4982726;28;47130;-50
2022/05/09 06:43:22;;;;;;;;;10.50;10.50;;;;;16.45;42.10;101942.00;5005971;28;45313;-56
2022/05/09 06:45:51;;;;;;;;;17.75;14.00;;;;;16.51;41.91;101950.69;5005570;28;45460;-53
2022/05/09 06:48:17;;;;;;;;;17.25;15.75;;;;;16.54;42.11;101945.34;5000350;28;45708;-52
2022/05/09 06:50:43;;;;;;;;;17.25;13.50;;;;;16.58;42.00;101949.69;5012279;28;46321;-52
2022/05/09 06:53:10;;;;;;;;;14.50;13.00;;;;;16.61;41.87;101947.88;4999818;28;45335;-53
2022/05/09 06:55:35;;;;;;;;;14.75;14.75;;;;;16.63;42.05;101944.28;5000797;28;45386;-53
2022/05/09 06:58:12;;;;;;;;;11.75;11.00;;;;;16.60;42.25;101935.50;5000667;28;45592;-54
2022/05/09 07:00:38;;;;;;;;;14.50;11.25;;;;;16.72;41.85;101952.03;5000832;28;45256;-53
2022/05/09 07:03:04;;;;;;;;;20.25;16.75;;;;;16.76;42.08;101963.47;5000869;28;45248;-53
2022/05/09 07:05:30;;;;;;;;;19.50;16.25;;;;;16.78;41.90;101959.03;4999961;28;45547;-52
2022/05/09 07:07:56;;;;;;;;;20.00;15.75;;;;;16.78;42.10;101953.72;5000832;28;45346;-53
2022/05/09 07:10:22;;;;;;;;;15.75;15.75;;;;;16.85;42.11;101957.09;5010861;28;46107;-53
2022/05/09 07:12:52;;;;;;;;;22.75;16.50;;;;;16.89;42.12;101959.66;5000777;28;45318;-52
2022/05/09 07:15:22;;;;;;;;;19.25;16.00;;;;;16.94;41.69;101958.72;5000800;28;45291;-52
2022/05/09 07:17:50;;;;;;;;;19.50;16.00;;;;;16.97;41.94;101966.63;5000625;28;45334;-52
2022/05/09 07:20:16;;;;;;;;;14.75;13.50;;;;;17.01;41.82;101968.31;5000503;28;47241;-52
2022/05/09 07:22:42;;;;;;;;;18.00;14.50;;;;;17.05;41.93;101962.00;5000707;28;45326;-52
2022/05/09 07:25:11;;;;;;;;;20.00;18.75;;;;;17.10;41.68;101959.25;4999359;28;45257;-54
2022/05/09 07:27:36;;;;;;;;;19.00;18.25;;;;;17.12;41.79;101955.66;5000525;28;45250;-53
2022/05/09 07:30:02;;;;;;;;;16.50;14.25;;;;;17.17;41.94;101956.44;5003195;28;46061;-52
2022/05/09 07:32:28;;;;;;;;;17.50;16.00;;;;;17.22;41.88;101959.00;5010203;28;45464;-50
2022/05/09 07:34:53;;;;;;;;;14.00;14.00;;;;;17.22;41.91;101956.34;5000445;28;45809;-52
2022/05/09 07:37:19;;;;;;;;;12.00;11.50;;;;;17.31;42.12;101969.41;5000501;28;45545;-52
2022/05/09 07:39:44;;;;;;;;;16.75;16.75;;;;;17.36;41.76;101961.34;5013381;28;46202;-52
2022/05/09 07:42:11;;;;;;;;;20.00;17.25;;;;;17.37;41.87;101963.06;4999093;28;45481;-53
2022/05/09 07:44:37;;;;;;;;;19.00;15.25;;;;;17.40;42.14;101956.81;4998859;28;45177;-52
2022/05/09 07:47:03;;;;;;;;;17.50;16.25;;;;;17.47;41.76;101964.63;4982520;28;45544;-53
2022/05/09 07:49:28;;;;;;;;;17.00;14.75;;;;;17.52;42.28;101961.81;5000009;28;46282;-51
2022/05/09 07:51:54;;;;;;;;;18.75;15.50;;;;;17.56;42.08;101958.19;5000195;28;45302;-51
2022/05/09 07:54:19;;;;;;;;;20.00;17.25;;;;;17.61;41.81;101963.38;5000181;28;45416;-52
2022/05/09 07:56:44;;;;;;;;;16.00;13.75;;;;;17.68;41.83;101967.66;5000251;28;45326;-53
2022/05/09 07:59:10;;;;;;;;;16.75;16.50;;;;;17.73;41.87;101956.91;4999689;28;46367;-52
2022/05/09 08:01:36;;;;;;;;;19.50;18.50;;;;;17.78;42.32;101955.88;4999150;28;45325;-52
2022/05/09 08:04:01;;;;;;;;;7.50;2.50;;;;;17.83;42.06;101951.31;4999966;28;45258;-51
2022/05/09 08:06:27;;;;;;;;;20.50;16.00;;;;;17.91;41.99;101955.56;5000067;28;45325;-52
2022/05/09 08:08:52;;;;;;;;;21.25;19.50;;;;;17.95;41.99;101958.16;4999326;28;45482;-53
2022/05/09 08:11:18;;;;;;;;;23.25;19.00;;;;;18.02;41.67;101961.50;5010863;28;45318;-52
2022/05/09 08:13:45;;;;;;;;;31.25;29.00;;;;;18.08;41.98;101958.69;4999651;28;45466;-53
2022/05/09 08:16:11;;;;;;;;;16.50;16.00;;;;;18.13;41.83;101951.47;4999943;28;45367;-51
2022/05/09 08:18:37;;;;;;;;;16.75;16.75;;;;;18.16;42.09;101959.38;4999594;28;46158;-50
2022/05/09 08:21:04;;;;;;;;;19.75;17.00;;;;;18.26;42.02;101951.13;4999951;28;45300;-53
2022/05/09 08:23:31;;;;;;;;;15.75;14.25;;;;;18.31;41.77;101951.88;4999787;28;45416;-52
2022/05/09 08:25:57;;;;;;;;;20.50;18.00;;;;;18.39;41.80;101954.31;4999583;28;45348;-53
2022/05/09 08:28:23;;;;;;;;;22.25;17.25;;;;;18.45;42.07;101949.72;4999096;28;47296;-53
2022/05/09 08:30:49;;;;;;;;;14.00;12.50;;;;;18.51;42.24;101954.88;4999580;28;45346;-53
2022/05/09 08:33:19;;;;;;;;;19.50;18.75;;;;;18.55;42.16;101947.66;4999552;28;45318;-52
2022/05/09 08:35:47;;;;;;;;;17.75;15.50;;;;;18.65;42.01;101958.91;4999539;28;45512;-53
2022/05/09 08:38:13;;;;;;;;;23.50;18.00;;;;;18.71;41.95;101965.84;4999227;28;47972;-52
2022/05/09 08:40:53;;;;;;;;;19.25;16.50;;;;;18.77;42.18;101955.88;4999402;28;45369;-53
2022/05/09 08:43:44;;;;;;;;;24.00;19.50;;;;;18.84;41.81;101956.56;4986773;28;45306;-53
2022/05/09 08:46:19;;;;;;;;;24.00;20.50;;;;;18.91;41.90;101955.50;4999324;28;45432;-51
2022/05/09 08:48:56;;;;;;;;;22.25;19.25;;;;;18.97;41.80;101958.00;4999270;28;45239;-52
2022/05/09 08:51:39;;;;;;;;;19.00;18.00;;;;;19.06;41.65;101954.19;4986774;28;45307;-52
2022/05/09 08:54:12;;;;;;;;;18.25;17.25;;;;;19.14;41.69;101956.59;4999194;28;45246;-54
2022/05/09 08:56:38;;;;;;;;;19.50;17.00;;;;;19.19;41.53;101951.16;4999440;28;45399;-54
2022/05/09 08:59:09;;;;;;;;;26.25;21.50;;;;;19.30;41.63;101955.19;4998748;28;45364;-54
2022/05/09 09:01:39;;;;;;;;;19.25;19.25;;;;;19.38;41.95;101952.28;5010887;28;45400;-54
2022/05/09 09:04:13;;;;;;;;;21.50;19.25;;;;;19.47;41.58;101954.69;5000280;28;45498;-54
2022/05/09 09:07:15;;;;;;;;;19.75;17.75;;;;;19.58;41.85;101940.13;4999066;28;45508;-51
2022/05/09 09:10:02;;;;;;;;;22.25;18.50;;;;;19.70;41.90;101938.81;5005163;28;45404;-53
2022/05/09 09:12:52;;;;;;;;;24.75;21.00;;;;;19.80;41.48;101945.63;5000237;28;45318;-52
2022/05/09 09:15:53;;;;;;;;;29.25;25.00;;;;;19.89;41.92;101944.47;5002709;28;45215;-54
2022/05/09 09:18:37;;;;;;;;;17.50;17.50;;;;;20.00;41.21;101944.97;5002344;28;45441;-51
2022/05/09 09:21:46;;;;;;;;;18.75;17.50;;;;;20.10;41.87;101946.38;5002396;28;46165;-52
2022/05/09 09:24:26;;;;;;;;;24.75;20.00;;;;;20.21;41.38;101940.63;4991211;28;45310;-54
2022/05/09 09:27:21;;;;;;;;;23.25;21.50;;;;;20.33;41.85;101935.81;5002391;28;45500;-53
2022/05/09 09:29:53;;;;;;;;;21.50;19.25;;;;;20.43;41.16;101931.88;4993537;28;45604;-53
2022/05/09 09:32:20;;;;;;;;;22.00;20.25;;;;;20.53;41.18;101927.06;5002235;28;46403;-54
2022/05/09 09:35:03;;;;;;;;;29.25;22.50;;;;;20.60;41.40;101933.91;5002118;28;45381;-53
2022/05/09 09:37:43;;;;;;;;;21.25;21.25;;;;;20.70;41.71;101926.41;5002309;28;45239;-51
2022/05/09 09:40:09;;;;;;;;;29.00;24.00;;;;;20.82;41.48;101922.41;4989195;28;45402;-51
2022/05/09 09:42:35;;;;;;;;;25.50;21.00;;;;;20.91;40.98;101932.78;5001879;28;45303;-52
2022/05/09 09:45:03;;;;;;;;;19.75;17.50;;;;;21.02;41.21;101930.56;5000561;28;45259;-53
2022/05/09 09:47:30;;;;;;;;;21.25;20.25;;;;;21.14;41.11;101928.31;5002179;28;45309;-53
2022/05/09 09:50:20;;;;;;;;;20.50;18.75;;;;;21.30;41.32;101931.25;5002031;28;45334;-53
2022/05/09 09:52:56;;;;;;;;;23.00;20.50;;;;;21.45;40.81;101932.44;5001785;28;47343;-53
2022/05/09 09:55:27;;;;;;;;;20.25;18.00;;;;;21.61;40.76;101932.69;5013947;28;45281;-53
2022/05/09 09:57:53;;;;;;;;;24.25;22.50;;;;;21.77;41.17;101930.22;5001972;28;45595;-52
2022/05/09 10:00:21;;;;;;;;;23.75;20.50;;;;;21.92;40.50;101924.22;5001910;28;45319;-54
2022/05/09 10:02:48;;;;;;;;;22.25;20.00;;;;;22.08;40.61;101916.38;4988719;28;45185;-53
2022/05/09 10:05:16;;;;;;;;;23.50;20.00;;;;;22.24;41.01;101921.94;4984031;28;45305;-54
2022/05/09 10:07:44;;;;;;;;;25.00;23.00;;;;;22.40;40.90;101925.69;5001746;28;45402;-52
2022/05/09 10:10:52;;;;;;;;;29.25;26.50;;;;;22.56;40.37;101922.31;5011753;28;45464;-52
2022/05/09 10:13:20;;;;;;;;;25.00;22.75;;;;;22.70;40.44;101917.19;4993574;28;46116;-53
2022/05/09 10:16:01;;;;;;;;;24.50;21.00;;;;;22.93;40.46;101925.06;5001392;28;45381;-53
2022/05/09 10:18:32;;;;;;;;;25.00;24.00;;;;;23.11;40.31;101916.13;5001774;28;45555;-53
2022/05/09 10:21:00;;;;;;;;;25.00;20.75;;;;;23.24;40.37;101908.38;5001474;28;45345;-53
2022/05/09 10:26:28;;;;;;;;;28.00;24.25;;;;;23.65;40.48;101897.41;4985794;28;45461;-55
2022/05/09 10:29:00;;;;;;;;;24.50;22.50;;;;;23.79;40.21;101885.94;4988828;28;45389;-54
2022/05/09 10:31:29;;;;;;;;;23.75;21.25;;;;;24.08;40.17;101893.47;5001057;28;45388;-54
2022/05/09 10:34:07;;;;;;;;;28.00;25.25;;;;;24.29;39.82;101891.44;5001241;28;46258;-55
2022/05/09 10:36:41;;;;;;;;;22.50;20.50;;;;;24.59;40.19;101896.06;5001154;28;45235;-55
2022/05/09 10:39:31;;;;;;;;;27.50;24.25;;;;;24.93;39.82;101892.41;5001429;28;45290;-55
2022/05/09 10:41:59;;;;;;;;;19.25;19.00;;;;;25.29;40.01;101893.91;4989891;28;45546;-53
2022/05/09 10:44:39;;;;;;;;;23.50;22.00;;;;;25.68;40.17;101893.50;5000697;28;46214;-53
2022/05/09 10:47:18;;;;;;;;;21.00;19.50;;;;;26.12;39.58;101884.56;5001155;28;45391;-53
2022/05/09 10:49:46;;;;;;;;;23.75;23.00;;;;;26.58;39.75;101886.19;5001135;28;45432;-54
2022/05/09 10:52:42;;;;;;;;;26.00;21.50;;;;;27.09;39.56;101888.28;5000941;28;45245;-54
2022/05/09 10:55:14;;;;;;;;;20.75;18.50;;;;;27.56;39.80;101884.25;4991302;28;46228;-52
2022/05/09 10:58:06;;;;;;;;;21.75;17.75;;;;;28.04;39.05;101880.13;4999534;28;45299;-53
2022/05/09 11:00:35;;;;;;;;;20.50;17.25;;;;;28.57;39.03;101879.06;4982686;28;45492;-53
2022/05/09 11:03:14;;;;;;;;;21.50;21.50;;;;;29.02;38.75;101888.34;5000983;28;45183;-54
2022/05/09 11:06:24;;;;;;;;;24.50;21.75;;;;;29.63;38.55;101876.53;5000588;28;46295;-54
2022/05/09 11:09:24;;;;;;;;;24.00;22.25;;;;;30.19;38.06;101874.94;4900931;28;45493;-53
2022/05/09 11:11:58;;;;;;;;;21.00;21.00;;;;;30.69;37.77;101879.09;4882805;29;45558;-54
2022/05/09 11:14:40;;;;;;;;;25.00;20.00;;;;;31.17;37.68;101876.03;4971677;28;45325;-55
2022/05/09 11:17:15;;;;;;;;;22.75;21.25;;;;;31.60;37.22;101874.22;5000418;28;46326;-53
2022/05/09 11:20:10;;;;;;;;;20.25;19.25;;;;;32.05;36.69;101879.38;5000222;28;45178;-54
2022/05/09 11:22:53;;;;;;;;;22.50;17.75;;;;;32.58;36.88;101872.00;4977464;28;45502;-55
2022/05/09 11:25:24;;;;;;;;;20.25;18.75;;;;;33.06;36.62;101868.50;5000255;28;45449;-54
2022/05/09 11:28:15;;;;;;;;;16.75;16.25;;;;;33.58;36.20;101875.53;4999988;28;45418;-54
2022/05/09 11:31:07;;;;;;;;;20.75;20.00;;;;;34.13;35.67;101873.97;5000398;28;45297;-55
2022/05/09 11:33:56;;;;;;;;;23.25;21.75;;;;;34.61;35.19;101864.69;5000422;28;45476;-53
2022/05/09 11:36:40;;;;;;;;;19.75;19.75;;;;;35.14;35.44;101867.63;5000272;28;45241;-55
2022/05/09 11:39:28;;;;;;;;;20.50;18.25;;;;;35.57;34.88;101867.81;5000333;28;45469;-52
2022/05/09 11:45:22;;;;;;;;;14.75;13.00;;;;;36.44;34.35;101859.59;4970379;28;45492;-54
2022/05/09 11:48:25;;;;;;;;;17.50;16.25;;;;;36.79;33.53;101860.38;5000065;28;45349;-55
2022/05/09 11:51:08;;;;;;;;;15.50;14.50;;;;;37.12;33.82;101865.94;4999881;28;46882;-54
2022/05/09 11:53:37;;;;;;;;;17.00;15.25;;;;;37.46;33.50;101855.81;5000328;28;45249;-55
2022/05/09 11:56:05;;;;;;;;;17.00;15.00;;;;;37.70;33.02;101857.69;5000049;28;45359;-55
2022/05/09 11:58:39;;;;;;;;;16.00;16.00;;;;;37.94;32.35;101859.53;4999750;28;45473;-54
2022/05/09 12:01:05;;;;;;;;;11.75;11.75;;;;;38.20;32.20;101850.16;4999797;28;45303;-53
2022/05/09 12:03:40;;;;;;;;;15.50;14.50;;;;;38.51;32.35;101850.19;5000016;28;45258;-52
2022/05/09 12:06:11;;;;;;;;;16.50;14.25;;;;;38.75;31.82;101848.34;5000107;28;45398;-53
2022/05/09 12:08:47;;;;;;;;;13.75;12.50;;;;;38.99;31.33;101849.19;4999824;28;45325;-54
2022/05/09 12:11:42;;;;;;;;;19.00;18.00;;;;;39.16;30.86;101847.19;4988158;28;46062;-55
2022/05/09 12:14:08;;;;;;;;;14.00;14.00;;;;;39.26;30.35;101850.56;4999558;28;45330;-51
2022/05/09 12:16:35;;;;;;;;;18.25;17.00;;;;;39.25;29.59;101845.25;4998685;28;45355;-52
2022/05/09 12:19:05;;;;;;;;;14.75;12.50;;;;;39.16;29.34;101836.19;4999640;28;45500;-55
2022/05/09 12:21:37;;;;;;;;;19.25;16.00;;;;;39.09;29.08;101840.72;4999798;28;47384;-55
2022/05/09 12:24:10;;;;;;;;;14.50;13.50;;;;;39.08;28.34;101834.34;4999595;28;45327;-55
2022/05/09 12:26:38;;;;;;;;;15.75;14.50;;;;;39.04;28.43;101844.00;4999914;28;45314;-55
2022/05/09 12:29:18;;;;;;;;;15.50;15.50;;;;;39.01;28.14;101836.16;4981777;28;45614;-54
2022/05/09 12:31:56;;;;;;;;;15.00;12.75;;;;;38.93;27.98;101822.47;4999368;28;46997;-53
2022/05/09 12:34:33;;;;;;;;;15.50;15.00;;;;;38.98;28.03;101829.13;4999659;28;45243;-55
2022/05/09 12:37:00;;;;;;;;;14.75;13.50;;;;;39.01;27.49;101819.66;4999651;28;45196;-55
2022/05/09 12:39:31;;;;;;;;;13.25;12.25;;;;;39.10;27.74;101814.94;4999270;28;45441;-54
2022/05/09 12:42:00;;;;;;;;;13.50;13.25;;;;;39.18;27.37;101814.84;4999654;28;46196;-54
2022/05/09 12:44:40;;;;;;;;;10.75;10.75;;;;;39.18;26.98;101814.84;4999056;28;45391;-53
2022/05/09 12:47:10;;;;;;;;;13.00;13.00;;;;;39.14;27.17;101806.13;4999735;28;45360;-55
2022/05/09 12:49:40;;;;;;;;;14.50;14.25;;;;;39.22;27.07;101804.38;5002285;28;45323;-52
2022/05/09 12:52:11;;;;;;;;;14.00;13.00;;;;;39.34;26.88;101795.47;5002682;28;45260;-54
2022/05/09 12:54:39;;;;;;;;;12.50;11.75;;;;;39.53;27.22;101798.72;5002585;28;45334;-54
2022/05/09 12:57:06;;;;;;;;;15.75;14.75;;;;;39.70;26.83;101791.19;5003053;28;45266;-53
2022/05/09 12:59:52;;;;;;;;;12.25;11.25;;;;;39.88;26.60;101792.69;5002349;28;45227;-54
2022/05/09 13:02:23;;;;;;;;;14.00;13.50;;;;;39.98;26.24;101783.06;5002465;28;46515;-54
2022/05/09 13:04:50;;;;;;;;;10.50;8.75;;;;;40.07;26.55;101782.97;5002726;28;45449;-54
2022/05/09 13:07:17;;;;;;;;;11.75;10.00;;;;;40.27;26.05;101783.25;5002757;28;45465;-54
2022/05/09 13:09:53;;;;;;;;;7.50;7.50;;;;;40.47;25.69;101778.78;5010397;28;45230;-53
2022/05/09 13:12:33;;;;;;;;;9.75;8.00;;;;;40.56;25.50;101776.78;5004871;28;45172;-54
2022/05/09 13:15:11;;;;;;;;;8.00;8.00;;;;;40.63;25.26;101774.09;5002536;28;45455;-53
2022/05/09 13:17:45;;;;;;;;;12.00;8.75;;;;;40.68;25.12;101777.13;5002907;28;45345;-54
2022/05/09 13:20:14;;;;;;;;;9.25;8.50;;;;;40.69;24.71;101767.78;5002211;28;45693;-54
2022/05/09 13:22:54;;;;;;;;;13.00;11.00;;;;;40.81;24.61;101762.63;5002391;28;45487;-54
2022/05/09 13:25:28;;;;;;;;;15.00;13.75;;;;;40.89;24.80;101769.88;5002132;28;45300;-55
2022/05/09 13:27:57;;;;;;;;;15.25;14.50;;;;;41.00;24.53;101758.34;5002434;28;45347;-54
2022/05/09 13:30:23;;;;;;;;;12.00;11.75;;;;;41.09;25.10;101759.88;5002272;28;45469;-55
2022/05/09 13:32:56;;;;;;;;;12.00;11.00;;;;;41.18;24.49;101762.50;5002372;28;45405;-54
2022/05/09 13:35:25;;;;;;;;;11.75;10.25;;;;;41.20;24.16;101752.97;5000992;28;46109;-54
2022/05/09 13:37:52;;;;;;;;;13.50;11.75;;;;;41.18;24.77;101748.72;5002198;28;45401;-53
2022/05/09 13:40:20;;;;;;;;;14.75;11.00;;;;;41.16;24.82;101754.44;5002091;28;45507;-54
2022/05/09 13:42:48;;;;;;;;;17.00;14.25;;;;;41.16;24.36;101742.53;5001785;28;48134;-54
2022/05/09 13:45:29;;;;;;;;;13.00;12.25;;;;;41.09;24.22;101748.03;5002209;28;45315;-54
2022/05/09 13:47:57;;;;;;;;;8.00;8.00;;;;;40.84;24.46;101742.91;4984583;28;45339;-54
2022/05/09 13:50:27;;;;;;;;;12.25;12.25;;;;;40.55;24.70;101742.03;5002083;28;45479;-55
2022/05/09 13:52:52;;;;;;;;;16.00;12.75;;;;;40.22;24.18;101737.03;5002029;28;46179;-55
2022/05/09 13:55:31;;;;;;;;;14.75;13.50;;;;;39.87;24.39;101738.72;5001870;28;45429;-52
2022/05/09 13:57:58;;;;;;;;;14.50;14.25;;;;;39.62;24.33;101733.50;5001833;28;45457;-55
2022/05/09 14:00:30;;;;;;;;;11.50;11.50;;;;;39.55;24.41;101735.31;4999405;28;45469;-54
2022/05/09 14:03:00;;;;;;;;;15.25;13.00;;;;;39.44;24.25;101729.25;5002006;28;45270;-54
2022/05/09 14:05:28;;;;;;;;;13.00;12.25;;;;;39.28;24.09;101727.53;5001664;28;45435;-54
2022/05/09 14:07:59;;;;;;;;;13.75;13.25;;;;;39.17;24.47;101722.47;5002160;28;45325;-54
2022/05/09 14:10:37;;;;;;;;;14.00;14.00;;;;;39.13;24.58;101722.03;5013345;28;45362;-54
2022/05/09 14:13:46;;;;;;;;;12.00;12.00;;;;;39.17;24.16;101723.34;5001416;28;46176;-55
2022/05/09 14:16:17;;;;;;;;;13.25;13.25;;;;;39.27;23.97;101719.47;5001639;28;45211;-54
2022/05/09 14:18:48;;;;;;;;;13.00;12.00;;;;;39.37;24.07;101705.47;5001336;28;45421;-54
2022/05/09 14:21:20;;;;;;;;;8.75;7.00;;;;;39.54;23.96;101706.13;5001482;28;45232;-54
2022/05/09 14:23:47;;;;;;;;;15.25;13.00;;;;;39.74;24.18;101701.75;5001126;28;45770;-52
2022/05/09 14:31:59;;;;;;;;;12.75;12.75;;;;;40.30;23.90;101708.53;4997175;28;45426;-50
2022/05/09 14:34:27;;;;;;;;;16.00;13.00;;;;;40.49;24.01;101706.16;4997004;28;46141;-52
2022/05/09 14:37:24;;;;;;;;;13.00;12.25;;;;;40.67;24.16;101706.56;5006308;28;45323;-53
2022/05/09 14:40:29;;;;;;;;;14.00;12.50;;;;;40.84;23.80;101704.34;4993646;28;45329;-53
2022/05/09 14:43:08;;;;;;;;;10.25;10.25;;;;;41.02;24.00;101698.38;4984577;28;45351;-50
2022/05/09 14:45:40;;;;;;;;;11.50;11.50;;;;;41.16;23.83;101701.19;4980985;28;46183;-52
2022/05/09 14:48:16;;;;;;;;;13.00;11.25;;;;;41.22;23.82;101701.25;4997043;28;45496;-55
2022/05/09 14:50:51;;;;;;;;;12.50;10.75;;;;;41.23;23.67;101694.66;4998215;28;45397;-53
2022/05/09 14:53:22;;;;;;;;;11.00;11.00;;;;;41.18;23.61;101696.34;5006734;28;45533;-54
2022/05/09 14:58:42;;;;;;;;;13.50;11.50;;;;;40.92;23.67;101697.84;4997667;28;45532;-55
2022/05/09 15:01:10;;;;;;;;;13.25;13.25;;;;;40.68;23.49;101696.41;4998290;28;45444;-55
2022/05/09 15:03:47;;;;;;;;;13.00;13.00;;;;;40.46;23.79;101686.22;5008551;28;45400;-56
2022/05/09 15:06:15;;;;;;;;;10.75;10.50;;;;;40.26;23.44;101676.94;4999605;28;46237;-55
2022/05/09 15:08:41;;;;;;;;;11.25;11.25;;;;;39.97;23.44;101678.72;4996372;28;45282;-54
2022/05/09 15:11:19;;;;;;;;;12.25;12.25;;;;;39.76;23.63;101680.44;4998658;28;45310;-54
2022/05/09 15:13:49;;;;;;;;;11.00;11.00;;;;;39.55;23.17;101678.44;5000928;28;45464;-54
2022/05/09 15:16:18;;;;;;;;;10.25;10.25;;;;;39.29;23.36;101677.03;4994544;28;46326;-54
2022/05/09 15:18:44;;;;;;;;;14.25;11.75;;;;;39.01;23.36;101671.31;4996664;28;45421;-54
2022/05/09 15:21:14;;;;;;;;;12.75;12.25;;;;;38.72;23.27;101672.09;4993893;28;45324;-53
2022/05/09 15:23:41;;;;;;;;;11.25;11.25;;;;;38.44;23.68;101675.44;4998262;28;45428;-53
2022/05/09 15:26:07;;;;;;;;;11.75;11.75;;;;;38.15;23.37;101674.25;4992024;28;45545;-53
2022/05/09 15:28:36;;;;;;;;;13.75;13.25;;;;;37.91;23.72;101669.78;5019413;28;45507;-50
2022/05/09 15:31:11;;;;;;;;;12.50;12.50;;;;;37.68;23.19;101668.69;5020047;28;45252;-52
2022/05/09 15:33:36;;;;;;;;;12.00;10.75;;;;;37.50;23.59;101671.69;5019515;28;45532;-52
2022/05/09 15:36:03;;;;;;;;;11.75;11.50;;;;;37.35;23.17;101665.25;5020211;28;46744;-51
2022/05/09 15:38:29;;;;;;;;;10.25;10.25;;;;;37.15;23.02;101662.03;5019959;28;45377;-52
2022/05/09 15:41:02;;;;;;;;;14.00;12.25;;;;;37.02;23.34;101647.00;5020170;28;45461;-52
2022/05/09 15:43:34;;;;;;;;;10.25;10.25;;;;;36.88;23.73;101656.78;5002877;28;45427;-52
2022/05/09 15:46:00;;;;;;;;;12.50;12.50;;;;;36.77;23.46;101646.16;5019953;28;45655;-53
2022/05/09 15:48:27;;;;;;;;;10.00;10.00;;;;;36.65;23.11;101639.34;5019813;28;45451;-52
2022/05/09 15:50:54;;;;;;;;;11.75;11.25;;;;;36.53;23.79;101642.44;5019905;28;45360;-53
2022/05/09 15:53:19;;;;;;;;;10.25;10.25;;;;;36.47;23.96;101636.75;5020071;28;45648;-53
2022/05/09 15:55:47;;;;;;;;;11.25;10.50;;;;;36.43;23.58;101628.06;5019681;28;45451;-52
2022/05/09 15:58:13;;;;;;;;;7.50;7.50;;;;;36.38;23.45;101628.56;5019812;28;45243;-53
2022/05/09 16:00:40;;;;;;;;;14.00;11.50;;;;;36.31;23.94;101630.25;5019935;28;45320;-53
2022/05/09 16:03:07;;;;;;;;;12.25;11.50;;;;;36.20;23.80;101626.00;5019856;28;45347;-52
2022/05/09 16:11:23;;;;;;;;;12.00;12.00;;;;;36.21;23.56;101635.88;5019568;28;46001;-54
2022/05/09 16:13:46;;;;;;;;;10.75;9.75;;;;;36.01;23.73;101629.88;4999490;28;45374;-53
2022/05/09 16:16:21;;;;;;;;;11.00;11.00;;;;;35.84;23.75;101626.25;4999748;28;46123;-53
2022/05/09 16:18:49;;;;;;;;;11.00;11.00;;;;;35.70;23.27;101635.06;4999512;28;45365;-54
2022/05/09 16:21:15;;;;;;;;;10.50;10.50;;;;;35.50;23.44;101627.19;4999981;28;45322;-54
2022/05/09 16:23:40;;;;;;;;;12.00;11.00;;;;;35.25;23.17;101624.31;4998754;28;45564;-54
2022/05/09 16:26:15;;;;;;;;;10.25;9.00;;;;;35.02;22.83;101624.03;4999688;28;45211;-54
2022/05/09 16:28:43;;;;;;;;;10.50;9.75;;;;;34.74;23.15;101626.03;4999423;28;45404;-54
2022/05/09 16:31:11;;;;;;;;;13.50;13.50;;;;;34.47;23.22;101636.91;4982103;28;45384;-53
2022/05/09 16:33:37;;;;;;;;;12.00;12.00;;;;;34.22;23.47;101635.81;4999536;28;45347;-54
2022/05/09 16:36:04;;;;;;;;;15.00;14.00;;;;;33.99;23.40;101629.97;4999422;28;45355;-54
2022/05/09 16:38:30;;;;;;;;;12.00;10.00;;;;;33.73;23.38;101627.94;4999580;28;45252;-52
2022/05/09 16:40:55;;;;;;;;;10.25;9.50;;;;;33.51;23.35;101621.91;4999345;28;45188;-54
2022/05/09 16:43:28;;;;;;;;;12.00;12.00;;;;;33.32;23.59;101627.44;4999261;28;45413;-53
2022/05/09 16:45:55;;;;;;;;;8.75;8.75;;;;;33.09;23.27;101619.63;4999536;28;47046;-52
2022/05/09 16:48:21;;;;;;;;;9.50;9.50;;;;;32.91;23.84;101614.13;5019299;28;45318;-51
2022/05/09 16:50:46;;;;;;;;;9.75;9.75;;;;;32.73;23.37;101622.16;5019198;28;45312;-49
2022/05/09 16:53:12;;;;;;;;;10.25;9.50;;;;;32.55;23.60;101616.59;5018972;28;45310;-53
2022/05/09 16:55:42;;;;;;;;;12.25;11.00;;;;;32.37;24.19;101617.31;5000943;28;47424;-51
2022/05/09 16:58:08;;;;;;;;;14.00;11.50;;;;;32.18;24.23;101618.16;5018677;28;45373;-50
2022/05/09 17:00:34;;;;;;;;;11.00;10.25;;;;;32.02;23.68;101615.16;5019199;28;45471;-48
2022/05/09 17:03:00;;;;;;;;;10.25;8.25;;;;;31.87;23.92;101611.97;5019115;28;45465;-50
2022/05/09 17:05:26;;;;;;;;;9.25;9.25;;;;;31.74;24.02;101613.09;5000826;28;47096;-49
2022/05/09 17:07:51;;;;;;;;;9.00;9.00;;;;;31.65;24.18;101600.38;5018640;28;45278;-49